Time;durP1;ratioP1;P1;durP2;ratioP2;P2;SDS_P1;SDS_P2;PMS_P1;PMS_P2;Temp;Humidity;BMP_temperature;BMP_pressure;BME280_temperature;BME280_humidity;BME280_pressure;Samples;Min_cycle;Max_cycle;Signal;HPM_P1;HPM_P2
2021/10/12 18:12:55;;;;;;;17.50;8.98;;;;;;;16.69;58.73;101920.81;350509;27;20403;-59
2021/10/12 18:13:07;;;;;;;22.63;9.90;;;;;;;16.81;59.06;101944.19;350733;28;1234;-59
2021/10/12 18:13:20;;;;;;;22.85;10.65;;;;;;;16.81;59.08;101940.69;349536;28;1139;-57
2021/10/12 18:13:32;;;;;;;23.23;11.52;;;;;;;16.80;58.67;101938.94;353221;28;1066;-59
2021/10/12 18:13:44;;;;;;;22.02;11.80;;;;;;;16.80;59.30;101944.25;353301;28;1081;-59
2021/10/12 18:13:59;;;;;;;18.92;10.93;;;;;;;16.79;59.17;101940.72;348443;28;1420;-61
2021/10/12 18:14:14;;;;;;;19.17;10.85;;;;;;;16.76;59.04;101941.72;352290;28;1233;-62
2021/10/12 18:14:26;;;;;;;20.42;11.48;;;;;;;16.76;59.15;101935.56;351872;28;1001;-65
2021/10/12 18:14:39;;;;;;;20.50;11.57;;;;;;;16.70;59.08;101928.69;351962;28;1100;-63
2021/10/12 18:14:51;;;;;;;18.98;11.40;;;;;;;16.77;59.08;101939.94;351836;28;1020;-63
2021/10/12 18:15:08;;;;;;;21.10;11.65;;;;;;;16.80;58.73;101947.78;351843;28;1058;-60
2021/10/12 18:15:20;;;;;;;20.50;11.63;;;;;;;16.80;58.61;101944.25;352042;28;1282;-59
2021/10/12 18:15:37;;;;;;;17.27;10.95;;;;;;;16.80;58.42;101949.56;351874;28;1088;-60
2021/10/12 18:15:50;;;;;;;18.73;10.85;;;;;;;16.72;58.80;101929.50;351985;28;1151;-61
2021/10/12 18:16:03;;;;;;;18.63;10.45;;;;;;;16.78;58.67;101941.69;351888;28;1051;-61
2021/10/12 18:16:21;;;;;;;16.95;10.25;;;;;;;16.77;58.21;101943.47;352214;28;982;-61
2021/10/12 18:16:33;;;;;;;18.77;10.52;;;;;;;16.64;58.38;101921.00;352058;28;1496;-63
2021/10/12 18:16:47;;;;;;;19.17;10.48;;;;;;;16.83;58.68;101949.44;352606;28;793;-63
2021/10/12 18:16:59;;;;;;;18.92;10.05;;;;;;;16.83;58.63;101944.13;351998;28;820;-65
2021/10/12 18:17:11;;;;;;;18.50;9.80;;;;;;;16.74;58.44;101932.09;352119;28;1037;-68
2021/10/12 18:17:29;;;;;;;18.90;10.23;;;;;;;16.83;58.29;101946.78;351932;28;1021;-61
2021/10/12 18:17:41;;;;;;;19.38;10.40;;;;;;;16.79;58.43;101935.41;351927;28;808;-62
2021/10/12 18:17:53;;;;;;;18.60;10.68;;;;;;;16.72;58.25;101926.84;351868;28;1167;-65
2021/10/12 18:18:05;;;;;;;17.48;10.50;;;;;;;16.86;58.17;101950.16;345339;28;2225;-63
2021/10/12 18:18:18;;;;;;;17.58;10.50;;;;;;;16.87;58.18;101946.59;350782;28;816;-60
2021/10/12 18:18:30;;;;;;;16.77;10.07;;;;;;;16.73;58.10;101922.38;350790;28;1085;-59
2021/10/12 18:18:48;;;;;;;16.75;9.77;;;;;;;16.67;58.75;101914.69;350318;28;1069;-67
2021/10/12 18:19:01;;;;;;;17.05;9.68;;;;;;;16.92;58.56;101954.41;350495;28;1033;-63
2021/10/12 18:19:18;;;;;;;16.85;9.75;;;;;;;16.99;66.19;101953.22;350668;28;1052;-61
2021/10/12 18:19:30;;;;;;;26.77;10.70;;;;;;;17.17;70.39;101924.09;350419;28;831;-61
2021/10/12 18:19:43;;;;;;;32.63;10.50;;;;;;;17.44;61.09;101947.72;350393;28;1061;-60
2021/10/12 18:20:00;;;;;;;25.25;10.15;;;;;;;17.50;58.67;101950.13;350464;28;1140;-59
2021/10/12 18:20:12;;;;;;;18.73;10.02;;;;;;;17.45;57.99;101941.47;353077;28;1163;-59
2021/10/12 18:20:30;;;;;;;18.33;10.18;;;;;;;17.43;57.60;101938.88;353967;28;773;-58
2021/10/12 18:20:47;;;;;;;20.83;10.80;;;;;;;17.38;57.18;101932.91;353639;28;1239;-62
2021/10/12 18:21:00;;;;;;;20.02;10.70;;;;;;;17.50;57.02;101953.66;352459;28;1124;-60
2021/10/12 18:21:23;;;;;;;20.38;10.20;;;;;;;17.40;56.81;101937.22;352045;28;659;-59
2021/10/12 18:21:41;;;;;;;22.58;10.85;;;;;;;17.49;57.08;101949.25;350378;28;935;-59
2021/10/12 18:21:54;;;;;;;21.67;10.68;;;;;;;17.49;56.82;101954.56;350508;28;789;-59
2021/10/12 18:22:07;;;;;;;21.42;10.52;;;;;;;17.49;57.21;101948.41;349931;28;1206;-59
2021/10/12 18:22:19;;;;;;;21.80;10.80;;;;;;;17.40;56.95;101933.72;349028;28;1085;-61
2021/10/12 18:22:36;;;;;;;18.75;10.38;;;;;;;17.46;56.97;101946.75;349395;28;1061;-59
2021/10/12 18:22:49;;;;;;;17.73;9.88;;;;;;;17.45;56.89;101942.34;349003;28;1005;-62
2021/10/12 18:23:02;;;;;;;17.60;9.40;;;;;;;17.50;56.79;101953.66;350330;28;1925;-62
2021/10/12 18:23:19;;;;;;;19.33;9.13;;;;;;;17.43;56.55;101938.03;350444;28;1148;-62
2021/10/12 18:23:39;;;;;;;19.23;9.68;;;;;;;17.46;56.20;101944.09;350472;28;1089;-60
2021/10/12 18:23:55;;;;;;;18.52;10.10;;;;;;;17.50;56.71;101950.97;350417;28;1176;-62
2021/10/12 18:24:08;;;;;;;18.15;10.18;;;;;;;17.38;56.69;101928.44;350685;28;1182;-65
2021/10/12 18:24:21;;;;;;;17.42;10.10;;;;;;;17.50;56.88;101945.66;351783;28;1093;-61
2021/10/12 18:24:38;;;;;;;17.20;9.05;;;;;;;17.33;56.87;101922.50;353212;28;1059;-62
2021/10/12 18:24:50;;;;;;;17.38;8.75;;;;;;;17.39;56.42;101921.34;353312;28;1128;-63
2021/10/12 18:25:03;;;;;;;16.05;8.75;;;;;;;17.42;56.52;101926.53;353277;28;1405;-63
2021/10/12 18:25:19;;;;;;;15.63;8.60;;;;;;;17.49;56.61;101937.75;351867;28;1069;-63
2021/10/12 18:25:32;;;;;;;19.13;9.40;;;;;;;17.45;56.29;101934.38;351792;28;1221;-62
2021/10/12 18:25:45;;;;;;;20.02;9.75;;;;;;;17.58;56.63;101957.75;351867;28;1037;-64
2021/10/12 18:25:59;;;;;;;19.05;9.57;;;;;;;17.58;56.87;101947.13;351869;28;1097;-62
2021/10/12 18:26:11;;;;;;;16.55;9.35;;;;;;;17.51;56.89;101941.19;351775;28;1493;-62
2021/10/12 18:26:30;;;;;;;12.95;8.65;;;;;;;17.49;56.38;101929.78;351748;28;1147;-64
2021/10/12 18:26:46;;;;;;;14.73;8.25;;;;;;;17.56;56.42;101942.72;351714;28;1061;-65
2021/10/12 18:26:59;;;;;;;17.08;8.70;;;;;;;17.56;56.10;101942.72;351656;28;978;-63
2021/10/12 18:27:11;;;;;;;16.52;8.90;;;;;;;17.46;56.04;101919.25;352025;28;1501;-62
2021/10/12 18:27:28;;;;;;;14.82;8.50;;;;;;;17.64;55.97;101950.34;353214;28;1097;-62
2021/10/12 18:27:45;;;;;;;14.98;8.86;;;;;;;17.52;56.07;101926.97;353226;28;1171;-62
2021/10/12 18:28:08;;;;;;;14.85;9.38;;;;;;;17.65;55.99;101948.56;353164;28;1284;-67
2021/10/12 18:28:21;;;;;;;15.73;9.38;;;;;;;17.46;55.93;101913.94;353385;28;1164;-64
2021/10/12 18:28:33;;;;;;;18.75;9.20;;;;;;;17.69;55.62;101955.47;353301;28;1018;-64
2021/10/12 18:28:51;;;;;;;16.38;8.68;;;;;;;17.43;55.45;101904.31;353222;28;1336;-64
2021/10/12 18:29:08;;;;;;;14.30;8.82;;;;;;;17.33;55.45;101890.56;353320;28;1089;-66
2021/10/12 18:29:20;;;;;;;16.80;8.90;;;;;;;17.70;55.79;101950.09;353361;28;1180;-60
2021/10/12 18:29:37;;;;;;;18.05;9.20;;;;;;;17.67;55.42;101938.72;353348;28;1080;-61
2021/10/12 18:29:49;;;;;;;16.55;9.20;;;;;;;17.72;55.20;101948.19;353340;28;1112;-63
2021/10/12 18:30:08;;;;;;;13.80;8.65;;;;;;;17.73;55.41;101952.59;353280;28;1277;-60
2021/10/12 18:30:21;;;;;;;14.35;8.50;;;;;;;17.68;55.56;101938.63;350370;28;1058;-61
2021/10/12 18:30:36;;;;;;;14.95;8.25;;;;;;;17.75;55.85;101947.19;350382;28;1155;-62
2021/10/12 18:30:49;;;;;;;15.45;8.20;;;;;;;17.59;55.60;101925.75;350977;28;966;-62
2021/10/12 18:31:01;;;;;;;15.98;7.88;;;;;;;17.75;55.80;101943.69;350782;28;844;-64
2021/10/12 18:31:18;;;;;;;15.40;7.90;;;;;;;17.79;55.65;101947.91;350435;28;1470;-60
2021/10/12 18:31:32;;;;;;;14.10;7.90;;;;;;;17.80;55.59;101941.66;350519;28;1042;-59
2021/10/12 18:31:47;;;;;;;14.02;7.90;;;;;;;17.79;55.65;101951.44;350484;28;1084;-61
2021/10/12 18:32:03;;;;;;;14.40;8.00;;;;;;;17.82;55.50;101953.09;349813;28;1046;-59
2021/10/12 18:32:15;;;;;;;13.88;7.75;;;;;;;17.84;55.54;101953.91;349439;28;1078;-60
2021/10/12 18:32:27;;;;;;;13.27;7.57;;;;;;;17.85;55.32;101951.16;349151;28;948;-61
2021/10/12 18:32:40;;;;;;;14.68;7.80;;;;;;;17.77;54.87;101937.34;349865;28;970;-59
2021/10/12 18:32:56;;;;;;;15.05;8.18;;;;;;;17.78;55.18;101935.56;351870;28;1501;-58
2021/10/12 18:33:09;;;;;;;13.73;7.90;;;;;;;17.82;55.39;101945.97;351901;28;1088;-58
2021/10/12 18:33:21;;;;;;;15.20;8.02;;;;;;;17.83;55.29;101933.53;352569;28;776;-59
2021/10/12 18:33:39;;;;;;;14.55;8.02;;;;;;;17.83;55.08;101942.38;353086;28;1991;-57
2021/10/12 18:33:51;;;;;;;13.38;7.68;;;;;;;17.75;55.17;101923.25;353427;28;903;-57
2021/10/12 18:34:09;;;;;;;14.98;7.72;;;;;;;17.91;55.22;101950.03;352865;28;1118;-60
2021/10/12 18:34:22;;;;;;;14.77;7.88;;;;;;;17.89;55.07;101943.91;350682;28;1057;-60
2021/10/12 18:34:34;;;;;;;15.45;7.97;;;;;;;17.89;55.23;101941.25;352016;28;986;-60
2021/10/12 18:34:51;;;;;;;15.02;7.90;;;;;;;17.89;55.56;101941.25;352047;28;1084;-59
2021/10/12 18:35:10;;;;;;;15.73;7.97;;;;;;;17.92;55.03;101940.22;351985;28;784;-58
2021/10/12 18:35:22;;;;;;;17.13;7.88;;;;;;;17.91;54.92;101943.81;352140;28;881;-58
2021/10/12 18:35:41;;;;;;;16.52;7.60;;;;;;;17.97;54.76;101949.78;352702;28;1009;-58
2021/10/12 18:35:53;;;;;;;15.27;7.43;;;;;;;17.97;54.31;101949.78;352316;28;805;-58
2021/10/12 18:36:10;;;;;;;14.07;7.28;;;;;;;17.92;54.65;101941.06;353230;28;1159;-60
2021/10/12 18:36:22;;;;;;;13.88;7.20;;;;;;;17.96;54.70;101944.50;354056;28;1081;-60
2021/10/12 18:36:35;;;;;;;16.27;7.32;;;;;;;17.99;54.63;101949.69;353375;28;1081;-59
2021/10/12 18:36:49;;;;;;;15.95;7.20;;;;;;;18.01;54.26;101956.66;353565;28;1096;-60
2021/10/12 18:37:06;;;;;;;15.35;7.65;;;;;;;17.97;54.30;101948.88;353255;28;1341;-59
2021/10/12 18:37:20;;;;;;;14.20;7.82;;;;;;;17.98;54.71;101947.94;353351;28;931;-59
2021/10/12 18:37:37;;;;;;;16.52;7.75;;;;;;;18.03;54.59;101957.47;352239;28;1113;-59
2021/10/12 18:37:50;;;;;;;16.02;7.55;;;;;;;18.03;54.59;101951.25;351931;28;1049;-60
2021/10/12 18:38:03;;;;;;;12.77;7.20;;;;;;;17.86;54.65;101922.75;351969;28;833;-62
2021/10/12 18:38:20;;;;;;;13.25;7.43;;;;;;;18.00;54.49;101946.94;350564;28;1107;-63
2021/10/12 18:38:33;;;;;;;14.02;7.28;;;;;;;18.07;54.71;101958.19;350586;28;1073;-61
2021/10/12 18:38:51;;;;;;;14.00;7.03;;;;;;;18.01;54.32;101947.81;350613;28;809;-62
2021/10/12 18:39:05;;;;;;;13.20;7.05;;;;;;;18.04;54.24;101952.97;350349;28;1485;-62
2021/10/12 18:39:19;;;;;;;13.50;7.13;;;;;;;18.09;54.39;101958.09;351047;28;957;-64
2021/10/12 18:39:38;;;;;;;14.30;7.40;;;;;;;18.09;54.57;101966.09;352766;28;730;-64
2021/10/12 18:39:51;;;;;;;14.38;7.30;;;;;;;18.05;54.28;101954.72;352693;28;859;-64
2021/10/12 18:40:04;;;;;;;13.50;7.03;;;;;;;18.10;54.54;101959.81;352202;28;781;-61
2021/10/12 18:40:22;;;;;;;12.80;6.90;;;;;;;18.11;54.05;101958.91;351834;28;1120;-59
2021/10/12 18:40:34;;;;;;;13.23;6.97;;;;;;;18.03;54.27;101937.94;352218;28;1152;-61
2021/10/12 18:40:46;;;;;;;13.57;6.97;;;;;;;18.12;54.41;101957.97;352125;28;854;-60
2021/10/12 18:40:58;;;;;;;12.13;6.78;;;;;;;18.12;54.39;101957.97;352179;28;977;-60
2021/10/12 18:41:10;;;;;;;11.75;6.60;;;;;;;18.08;54.19;101954.59;351832;28;1078;-62
2021/10/12 18:41:23;;;;;;;13.43;6.60;;;;;;;18.12;54.32;101958.81;352337;28;1535;-61
2021/10/12 18:41:42;;;;;;;13.52;6.75;;;;;;;18.13;53.83;101959.66;353283;28;913;-62
2021/10/12 18:41:58;;;;;;;13.63;6.75;;;;;;;18.17;54.14;101963.94;354276;27;2007;-61
2021/10/12 18:42:11;;;;;;;13.57;6.65;;;;;;;18.14;53.74;101959.63;352824;27;1236;-63
2021/10/12 18:42:28;;;;;;;11.35;6.30;;;;;;;18.18;53.73;101965.66;351964;28;1065;-63
2021/10/12 18:42:40;;;;;;;12.60;6.50;;;;;;;18.18;54.27;101961.19;351952;28;1128;-62
2021/10/12 18:42:52;;;;;;;12.63;6.55;;;;;;;18.20;54.06;101963.75;351969;28;1091;-62
2021/10/12 18:43:09;;;;;;;14.35;6.78;;;;;;;18.09;53.96;101948.28;352178;28;1128;-61
2021/10/12 18:43:21;;;;;;;14.60;6.93;;;;;;;18.04;53.89;101937.00;351800;28;1093;-62
2021/10/12 18:43:34;;;;;;;12.68;6.85;;;;;;;18.21;53.86;101954.84;351975;28;1000;-62
2021/10/12 18:43:51;;;;;;;13.57;6.80;;;;;;;18.22;53.93;101969.88;351697;28;1969;-61
2021/10/12 18:44:03;;;;;;;14.88;7.00;;;;;;;18.15;53.75;101956.03;351722;28;1097;-63
2021/10/12 18:44:21;;;;;;;14.18;7.03;;;;;;;18.16;53.44;101951.53;351707;28;1106;-62
2021/10/12 18:44:53;;;;;;;12.65;6.53;;;;;;;18.25;52.89;101967.09;350375;28;1025;-62
2021/10/12 18:45:22;;;;;;;12.73;6.85;;;;;;;18.20;53.74;101958.44;350005;28;1073;-61
2021/10/12 18:45:34;;;;;;;12.50;6.20;;;;;;;18.13;53.32;101936.59;350484;28;1533;-61
2021/10/12 18:45:47;;;;;;;12.98;5.97;;;;;;;18.26;53.46;101960.81;350523;28;1026;-62
2021/10/12 18:45:59;;;;;;;13.13;5.97;;;;;;;18.25;52.96;101952.91;350439;28;1009;-60
2021/10/12 18:46:19;;;;;;;13.68;6.05;;;;;;;18.26;53.15;101954.63;350190;28;1156;-61
2021/10/12 18:46:32;;;;;;;15.48;6.40;;;;;;;18.19;53.40;101943.41;351423;28;1156;-64
2021/10/12 18:46:45;;;;;;;15.30;6.88;;;;;;;18.28;53.66;101956.28;351846;28;1050;-61
2021/10/12 18:47:02;;;;;;;15.43;6.93;;;;;;;18.29;53.64;101963.34;351896;28;1101;-62
2021/10/12 18:47:14;;;;;;;15.82;6.88;;;;;;;17.94;53.46;101901.94;351781;28;1091;-65
2021/10/12 18:47:26;;;;;;;15.00;6.95;;;;;;;18.23;53.38;101952.97;351846;28;1120;-61
2021/10/12 18:47:39;;;;;;;14.07;6.95;;;;;;;18.31;53.36;101964.13;351887;28;973;-62
2021/10/12 18:47:53;;;;;;;13.95;7.18;;;;;;;18.27;53.39;101948.38;351867;28;1020;-62
2021/10/12 18:48:11;;;;;;;15.23;7.25;;;;;;;18.21;53.23;101938.88;351928;28;1249;-61
2021/10/12 18:48:24;;;;;;;16.17;7.70;;;;;;;18.32;53.46;101960.53;351991;28;1017;-60
2021/10/12 18:48:41;;;;;;;16.08;7.53;;;;;;;18.30;53.48;101956.19;351912;28;1199;-60
2021/10/12 18:48:53;;;;;;;16.65;6.93;;;;;;;18.29;53.26;101955.34;351909;28;1090;-60
2021/10/12 18:49:06;;;;;;;16.95;6.75;;;;;;;18.33;53.05;101962.22;352009;28;1097;-61
2021/10/12 18:49:18;;;;;;;13.75;6.32;;;;;;;18.29;53.03;101959.81;351688;28;1000;-62
2021/10/12 18:49:30;;;;;;;12.45;6.20;;;;;;;18.31;53.40;101957.91;351887;28;1093;-61
2021/10/12 18:49:42;;;;;;;11.82;6.10;;;;;;;18.30;52.83;101957.06;351910;28;1108;-61
2021/10/12 18:49:54;;;;;;;12.20;6.20;;;;;;;18.34;53.11;101963.13;351971;28;1088;-61
2021/10/12 18:50:11;;;;;;;11.90;6.40;;;;;;;18.35;52.93;101962.19;352894;28;1141;-60
2021/10/12 18:50:24;;;;;;;11.43;6.22;;;;;;;18.35;52.91;101964.84;353342;28;925;-60
2021/10/12 18:50:36;;;;;;;10.93;5.93;;;;;;;18.29;52.63;101952.69;353320;28;1089;-62
2021/10/12 18:50:48;;;;;;;11.10;5.47;;;;;;;18.36;52.89;101964.75;353281;28;1036;-63
2021/10/12 18:51:05;;;;;;;12.18;5.72;;;;;;;18.31;52.79;101958.81;353213;28;1112;-63
2021/10/12 18:51:19;;;;;;;12.95;5.90;;;;;;;18.37;52.80;101968.28;353354;28;1045;-63
2021/10/12 18:51:32;;;;;;;13.13;5.75;;;;;;;18.36;52.63;101966.56;353215;28;842;-62
2021/10/12 18:51:50;;;;;;;12.27;5.82;;;;;;;18.33;53.00;101962.22;353250;28;1089;-61
2021/10/12 18:52:02;;;;;;;10.90;5.85;;;;;;;18.36;53.17;101964.75;353204;28;1119;-64
2021/10/12 18:52:14;;;;;;;10.38;5.75;;;;;;;18.37;52.79;101962.94;353255;28;1420;-61
2021/10/12 18:52:31;;;;;;;10.57;5.70;;;;;;;18.38;52.62;101958.50;353236;28;1092;-62
2021/10/12 18:52:44;;;;;;;10.48;5.65;;;;;;;18.38;52.98;101958.50;353400;28;1017;-62
2021/10/12 18:53:01;;;;;;;11.40;5.68;;;;;;;18.39;52.97;101962.91;353382;28;1085;-59
2021/10/12 18:53:14;;;;;;;11.45;5.68;;;;;;;18.34;52.94;101955.97;353253;28;1128;-62
2021/10/12 18:53:31;;;;;;;10.93;5.50;;;;;;;18.39;52.88;101961.09;353345;28;993;-61
2021/10/12 18:53:44;;;;;;;10.73;5.70;;;;;;;18.39;52.86;101965.56;353505;28;737;-63
2021/10/12 18:53:57;;;;;;;10.45;5.72;;;;;;;18.38;52.87;101955.84;353258;28;1029;-62
2021/10/12 18:54:10;;;;;;;10.80;5.60;;;;;;;18.40;52.52;101965.47;353186;28;1140;-60
2021/10/12 18:54:23;;;;;;;12.35;5.75;;;;;;;18.41;52.81;101961.00;353060;28;993;-60
2021/10/12 18:54:35;;;;;;;12.93;5.90;;;;;;;18.41;52.47;101963.66;353286;28;978;-60
2021/10/12 18:54:51;;;;;;;11.90;5.68;;;;;;;18.41;52.86;101961.00;353337;28;1159;-60
2021/10/12 18:55:10;;;;;;;12.00;5.30;;;;;;;18.35;52.73;101956.84;353354;28;1029;-60
2021/10/12 18:55:22;;;;;;;13.07;5.60;;;;;;;18.40;52.67;101968.13;353296;28;1164;-61
2021/10/12 18:55:34;;;;;;;13.15;6.03;;;;;;;18.35;52.89;101949.72;351731;28;1033;-61
2021/10/12 18:55:51;;;;;;;11.23;5.90;;;;;;;18.41;52.59;101963.66;351648;28;1073;-59
2021/10/12 18:56:03;;;;;;;11.20;5.75;;;;;;;18.35;52.76;101949.72;351844;28;1163;-59
2021/10/12 18:56:17;;;;;;;11.30;5.72;;;;;;;18.42;52.76;101966.28;350376;28;1149;-60
2021/10/12 18:56:29;;;;;;;12.95;5.70;;;;;;;18.42;52.45;101960.94;350431;28;1266;-60
2021/10/12 18:56:41;;;;;;;13.52;6.03;;;;;;;18.43;52.56;101962.66;350384;28;1116;-60
2021/10/12 18:56:54;;;;;;;13.20;6.20;;;;;;;18.29;52.34;101938.50;350375;28;998;-60
2021/10/12 18:57:10;;;;;;;12.65;5.80;;;;;;;18.42;52.54;101957.41;350426;28;1089;-60
2021/10/12 18:57:23;;;;;;;12.40;5.45;;;;;;;18.44;52.46;101964.38;350342;28;1076;-59
2021/10/12 18:57:35;;;;;;;11.73;5.45;;;;;;;18.41;52.35;101959.22;351575;28;1013;-59
2021/10/12 18:57:47;;;;;;;10.80;5.43;;;;;;;18.43;52.34;101957.31;351949;28;958;-59
2021/10/12 18:57:59;;;;;;;10.75;5.60;;;;;;;18.44;52.24;101959.06;351909;28;804;-61
2021/10/12 18:58:12;;;;;;;10.70;5.80;;;;;;;18.41;51.98;101953.00;351793;28;1119;-61
2021/10/12 18:58:29;;;;;;;11.88;5.97;;;;;;;18.44;52.35;101964.38;351803;28;1062;-61
2021/10/12 18:58:41;;;;;;;11.12;5.72;;;;;;;18.46;52.36;101959.00;351930;28;894;-61
2021/10/12 18:58:58;;;;;;;9.55;5.32;;;;;;;18.45;52.61;101962.59;351898;28;1114;-61
2021/10/12 18:59:15;;;;;;;12.25;5.30;;;;;;;18.30;52.06;101938.44;351899;28;1089;-59
2021/10/12 18:59:27;;;;;;;13.00;5.72;;;;;;;18.40;52.13;101951.31;351902;28;1057;-60
2021/10/12 18:59:40;;;;;;;11.00;5.80;;;;;;;18.47;52.49;101958.03;351995;28;1095;-60
2021/10/12 18:59:52;;;;;;;10.50;5.72;;;;;;;18.47;52.19;101958.91;351903;28;1081;-61
2021/10/12 19:00:12;;;;;;;10.02;5.30;;;;;;;18.47;52.05;101958.91;352487;28;1244;-59
2021/10/12 19:00:26;;;;;;;10.23;5.20;;;;;;;18.39;52.11;101949.56;353595;28;1096;-60
2021/10/12 19:00:39;;;;;;;10.98;5.50;;;;;;;18.42;52.06;101957.41;351833;28;1045;-61
2021/10/12 19:00:53;;;;;;;10.93;5.40;;;;;;;18.43;52.20;101959.97;351817;28;1081;-60
2021/10/12 19:01:10;;;;;;;10.40;5.00;;;;;;;18.47;52.51;101966.91;351819;28;1183;-60
2021/10/12 19:01:27;;;;;;;9.50;5.05;;;;;;;18.40;52.17;101952.16;351599;28;1591;-61
2021/10/12 19:01:41;;;;;;;11.15;5.13;;;;;;;18.48;52.08;101968.63;352354;28;1403;-59
2021/10/12 19:01:54;;;;;;;11.10;4.88;;;;;;;18.44;52.02;101955.53;351278;28;1254;-59
2021/10/12 19:02:11;;;;;;;13.27;4.80;;;;;;;18.38;52.44;101950.50;350993;28;1249;-60
2021/10/12 19:02:23;;;;;;;14.32;4.70;;;;;;;18.51;52.42;101963.13;350414;28;1077;-61
2021/10/12 19:02:42;;;;;;;10.88;4.90;;;;;;;18.49;52.33;101964.16;352875;28;1046;-59
2021/10/12 19:03:00;;;;;;;9.57;5.07;;;;;;;18.49;52.25;101965.03;353271;28;1109;-60
2021/10/12 19:03:16;;;;;;;10.00;4.97;;;;;;;18.52;52.38;101964.88;353265;28;997;-59
2021/10/12 19:03:28;;;;;;;9.93;4.95;;;;;;;18.48;51.98;101957.09;353973;28;819;-58
2021/10/12 19:03:41;;;;;;;10.32;4.90;;;;;;;18.45;52.38;101955.44;353229;28;1050;-58
2021/10/12 19:03:54;;;;;;;11.20;5.20;;;;;;;18.50;51.97;101961.41;353255;28;1100;-59
2021/10/12 19:04:13;;;;;;;11.65;5.30;;;;;;;18.50;52.12;101964.06;352295;28;1154;-59
2021/10/12 19:04:26;;;;;;;10.93;5.03;;;;;;;18.52;52.25;101969.34;351980;28;1345;-58
2021/10/12 19:04:40;;;;;;;10.70;4.95;;;;;;;18.52;52.05;101967.53;352974;28;1425;-58
2021/10/12 19:04:52;;;;;;;10.82;4.80;;;;;;;18.48;52.31;101957.09;351748;28;1922;-57
2021/10/12 19:05:12;;;;;;;11.88;4.60;;;;;;;18.54;51.94;101963.94;353566;28;1751;-58
2021/10/12 19:05:32;;;;;;;11.65;4.78;;;;;;;18.53;51.87;101971.06;352142;28;1358;-58
2021/10/12 19:05:53;;;;;;;10.88;4.60;;;;;;;18.49;51.99;101965.03;352967;28;1642;-59
2021/10/12 19:06:08;;;;;;;10.93;4.53;;;;;;;18.54;52.26;101966.59;352428;28;1190;-61
2021/10/12 19:06:22;;;;;;;11.15;4.68;;;;;;;18.48;52.47;101965.09;351869;28;1120;-60
2021/10/12 19:06:36;;;;;;;10.85;4.70;;;;;;;18.54;52.10;101966.59;352418;28;1615;-60
2021/10/12 19:06:50;;;;;;;13.82;4.55;;;;;;;18.55;51.99;101971.00;353233;28;1108;-61
2021/10/12 19:07:03;;;;;;;13.73;4.35;;;;;;;18.54;52.14;101964.78;351988;28;681;-63
2021/10/12 19:07:22;;;;;;;10.85;4.40;;;;;;;18.54;52.09;101963.94;351802;28;1128;-61
2021/10/12 19:07:42;;;;;;;11.50;4.70;;;;;;;18.48;51.93;101952.66;351839;28;1140;-60
2021/10/12 19:07:56;;;;;;;12.15;4.88;;;;;;;18.56;52.05;101965.56;351810;28;1074;-59
2021/10/12 19:08:11;;;;;;;11.85;4.95;;;;;;;18.54;52.13;101966.59;351712;28;1142;-59
2021/10/12 19:08:25;;;;;;;11.23;4.78;;;;;;;18.50;51.92;101960.56;351698;28;1141;-60
2021/10/12 19:08:39;;;;;;;11.30;4.55;;;;;;;18.56;52.08;101962.91;351857;28;1137;-60
2021/10/12 19:08:53;;;;;;;11.55;4.60;;;;;;;18.51;51.97;101959.63;351718;28;1057;-63
2021/10/12 19:09:12;;;;;;;11.85;4.60;;;;;;;18.53;52.18;101963.09;350443;28;1760;-61
2021/10/12 19:09:25;;;;;;;11.65;4.60;;;;;;;18.58;52.34;101968.16;350483;28;1132;-62
2021/10/12 19:09:37;;;;;;;10.60;4.57;;;;;;;18.49;52.00;101954.38;350395;28;1097;-61
2021/10/12 19:09:51;;;;;;;10.80;4.60;;;;;;;18.53;52.07;101957.75;350329;28;1149;-60
2021/10/12 19:10:07;;;;;;;11.52;4.63;;;;;;;18.59;52.00;101975.22;351600;28;1076;-60
2021/10/12 19:10:20;;;;;;;11.15;4.32;;;;;;;18.58;52.21;101968.16;352038;28;1029;-60
2021/10/12 19:10:40;;;;;;;12.05;4.38;;;;;;;18.59;52.13;101975.22;351807;28;1105;-60
2021/10/12 19:11:09;;;;;;;11.75;4.90;;;;;;;18.59;52.07;101973.44;351951;28;1049;-61
2021/10/12 19:11:23;;;;;;;23.33;5.25;;;;;;;18.59;52.23;101973.44;353178;28;1079;-60
2021/10/12 19:11:37;;;;;;;24.58;4.85;;;;;;;18.40;51.98;101940.66;353228;28;943;-60
2021/10/12 19:11:49;;;;;;;19.40;4.53;;;;;;;18.60;52.11;101977.81;353176;28;1081;-58
2021/10/12 19:12:10;;;;;;;14.73;4.53;;;;;;;18.58;52.24;101965.50;353937;28;1209;-60
2021/10/12 19:12:22;;;;;;;14.40;4.75;;;;;;;18.62;52.36;101972.41;353277;28;1073;-61
2021/10/12 19:12:40;;;;;;;15.88;4.93;;;;;;;18.59;52.18;101970.78;353259;28;1002;-60
2021/10/12 19:12:52;;;;;;;22.40;4.78;;;;;;;18.63;52.22;101971.47;353051;28;1375;-61
2021/10/12 19:13:05;;;;;;;21.38;4.75;;;;;;;18.61;52.12;101971.53;353283;28;1069;-61
2021/10/12 19:13:22;;;;;;;13.23;4.72;;;;;;;18.44;52.07;101942.22;353305;28;1080;-61
2021/10/12 19:13:44;;;;;;;12.80;4.32;;;;;;;18.62;52.12;101970.59;353544;28;1116;-61
2021/10/12 19:13:59;;;;;;;18.25;5.00;;;;;;;18.65;52.12;101969.59;353698;28;816;-59
2021/10/12 19:14:14;;;;;;;16.90;4.72;;;;;;;18.63;52.01;101972.34;354091;28;1182;-62
2021/10/12 19:14:33;;;;;;;12.35;4.53;;;;;;;18.56;51.99;101964.72;354067;28;980;-61
2021/10/12 19:14:47;;;;;;;14.32;4.85;;;;;;;18.64;52.02;101967.84;353818;28;1183;-60
2021/10/12 19:14:59;;;;;;;15.30;4.82;;;;;;;18.65;51.90;101975.78;353142;28;1179;-61
2021/10/12 19:15:15;;;;;;;12.68;4.70;;;;;;;18.61;51.86;101968.88;354108;28;655;-60
2021/10/12 19:15:31;;;;;;;10.50;4.38;;;;;;;18.65;51.94;101975.78;353103;28;1421;-63
2021/10/12 19:15:48;;;;;;;12.93;4.47;;;;;;;18.50;52.37;101949.91;351423;28;1455;-62
2021/10/12 19:16:01;;;;;;;13.60;4.60;;;;;;;18.58;52.37;101962.84;351754;28;1164;-61
2021/10/12 19:16:15;;;;;;;14.65;4.65;;;;;;;18.59;52.54;101965.44;351763;28;1225;-62
2021/10/12 19:16:28;;;;;;;12.80;4.20;;;;;;;18.68;52.35;101977.44;351653;28;1057;-61
2021/10/12 19:16:45;;;;;;;12.13;4.18;;;;;;;18.59;52.07;101960.13;352015;28;1152;-60
2021/10/12 19:16:57;;;;;;;12.65;4.47;;;;;;;18.66;52.03;101968.66;351405;28;1490;-61
2021/10/12 19:17:10;;;;;;;13.13;4.53;;;;;;;18.68;52.01;101977.44;351459;28;1473;-61
2021/10/12 19:17:28;;;;;;;12.52;4.03;;;;;;;18.63;52.15;101966.16;351600;28;1335;-61
2021/10/12 19:17:41;;;;;;;12.38;3.88;;;;;;;18.64;51.87;101966.06;351629;28;1339;-61
2021/10/12 19:17:53;;;;;;;14.60;4.22;;;;;;;18.59;51.87;101959.22;353214;28;1140;-61
2021/10/12 19:18:06;;;;;;;14.10;4.32;;;;;;;18.63;51.96;101968.81;352910;28;1327;-62
2021/10/12 19:18:19;;;;;;;11.30;4.00;;;;;;;18.60;52.16;101964.47;353287;28;1228;-61
2021/10/12 19:18:33;;;;;;;12.55;3.88;;;;;;;18.67;52.00;101973.91;353117;28;899;-63
2021/10/12 19:18:50;;;;;;;14.25;3.80;;;;;;;18.61;51.84;101963.53;351619;28;1030;-62
2021/10/12 19:19:03;;;;;;;13.73;4.20;;;;;;;18.66;51.63;101974.84;351705;28;1375;-62
2021/10/12 19:19:20;;;;;;;14.43;4.40;;;;;;;18.66;51.95;101977.53;351669;28;1307;-61
2021/10/12 19:19:32;;;;;;;14.50;4.25;;;;;;;18.69;51.59;101984.50;352010;28;1163;-59
2021/10/12 19:19:49;;;;;;;13.23;4.20;;;;;;;18.67;51.78;101984.56;351760;28;729;-60
2021/10/12 19:20:04;;;;;;;12.75;4.18;;;;;;;18.64;51.77;101978.50;351567;28;1416;-59
2021/10/12 19:20:16;;;;;;;12.98;4.10;;;;;;;18.56;52.09;101959.41;351686;28;1062;-60
2021/10/12 19:20:29;;;;;;;13.57;4.10;;;;;;;18.57;51.76;101961.13;351568;28;1054;-59
2021/10/12 19:20:42;;;;;;;13.60;3.92;;;;;;;18.68;51.83;101986.28;351634;28;1284;-60
2021/10/12 19:20:56;;;;;;;13.48;3.72;;;;;;;18.65;51.96;101970.47;351669;28;1069;-61
2021/10/12 19:21:13;;;;;;;14.13;4.28;;;;;;;18.69;51.61;101981.84;351636;28;1405;-59
2021/10/12 19:21:27;;;;;;;12.55;4.38;;;;;;;18.68;51.90;101978.28;351682;28;1415;-60
2021/10/12 19:21:40;;;;;;;9.90;4.00;;;;;;;18.67;51.68;101979.22;351922;28;1414;-60
2021/10/12 19:21:57;;;;;;;10.73;4.07;;;;;;;18.62;51.58;101975.94;352978;28;1169;-60